createdAt,value
2022-10-14T00:02:23.330Z,10.20
2022-10-14T00:04:50.055Z,10.18
2022-10-14T00:07:16.829Z,11.07
2022-10-14T00:09:43.649Z,11.43
2022-10-14T00:12:10.335Z,8.65
2022-10-14T00:14:37.066Z,12.25
2022-10-14T00:17:03.867Z,11.27
2022-10-14T00:19:30.653Z,9.43
2022-10-14T00:21:57.346Z,9.63
2022-10-14T00:24:24.023Z,9.05
2022-10-14T00:26:50.692Z,9.40
2022-10-14T00:29:19.090Z,9.60
2022-10-14T00:31:46.198Z,10.55
2022-10-14T00:34:15.729Z,10.98
2022-10-14T00:36:43.394Z,11.05
2022-10-14T00:39:10.992Z,10.57
2022-10-14T00:41:38.447Z,10.57
2022-10-14T00:44:28.155Z,9.73
2022-10-14T00:46:55.832Z,9.50
2022-10-14T00:49:41.935Z,9.02
2022-10-14T00:52:14.211Z,9.60
2022-10-14T00:54:45.125Z,11.40
2022-10-14T00:57:12.024Z,11.80
2022-10-14T00:59:39.010Z,10.77
2022-10-14T01:02:05.705Z,8.75
2022-10-14T01:04:33.078Z,9.80
2022-10-14T01:07:11.770Z,9.75
2022-10-14T01:09:57.177Z,9.07
2022-10-14T01:12:36.874Z,9.75
2022-10-14T01:15:11.744Z,8.68
2022-10-14T01:17:38.480Z,12.43
2022-10-14T01:20:42.954Z,8.57
2022-10-14T01:23:28.283Z,9.82
2022-10-14T01:26:09.570Z,11.07
2022-10-14T01:29:03.867Z,10.18
2022-10-14T01:31:33.973Z,10.23
2022-10-14T01:34:05.095Z,9.18
2022-10-14T01:36:44.335Z,9.20
2022-10-14T01:39:35.684Z,8.15
2022-10-14T01:42:10.980Z,10.05
2022-10-14T01:44:43.322Z,10.40
2022-10-14T01:47:13.716Z,9.75
2022-10-14T01:49:45.443Z,8.55
2022-10-14T01:52:20.102Z,8.60
2022-10-14T01:54:51.125Z,9.90
2022-10-14T01:57:23.436Z,8.63
2022-10-14T01:59:52.149Z,9.52
2022-10-14T02:02:19.627Z,10.02
2022-10-14T02:04:46.570Z,12.88
2022-10-14T02:07:32.425Z,9.82
2022-10-14T02:10:31.157Z,9.82
2022-10-14T02:13:35.726Z,9.93
2022-10-14T02:16:26.353Z,10.80
2022-10-14T02:19:23.418Z,10.50
2022-10-14T02:22:07.349Z,16.63
2022-10-14T02:24:41.823Z,10.10
2022-10-14T02:27:16.475Z,10.48
2022-10-14T02:29:46.311Z,8.48
2022-10-14T02:32:15.985Z,9.43
2022-10-14T02:34:46.757Z,13.00
2022-10-14T02:37:16.410Z,8.30
2022-10-14T02:39:48.684Z,11.98
2022-10-14T02:42:15.457Z,10.63
2022-10-14T02:44:58.591Z,10.25
2022-10-14T02:47:26.048Z,10.77
2022-10-14T02:49:53.151Z,11.20
2022-10-14T02:52:20.631Z,12.15
2022-10-14T02:54:47.722Z,12.68
2022-10-14T02:57:14.415Z,8.75
2022-10-14T02:59:41.057Z,11.07
2022-10-14T03:02:08.261Z,10.10
2022-10-14T03:04:35.481Z,10.38
2022-10-14T03:07:02.395Z,14.73
2022-10-14T03:09:29.082Z,11.20
2022-10-14T03:11:55.770Z,10.15
2022-10-14T03:14:22.512Z,10.25
2022-10-14T03:16:49.367Z,10.68
2022-10-14T03:19:16.163Z,14.18
2022-10-14T03:21:42.945Z,11.65
2022-10-14T03:24:09.923Z,10.82
2022-10-14T03:26:36.750Z,9.88
2022-10-14T03:29:03.467Z,10.18
2022-10-14T03:31:30.335Z,11.55
2022-10-14T03:33:57.419Z,9.95
2022-10-14T03:36:24.092Z,10.93
2022-10-14T03:38:50.749Z,10.90
2022-10-14T03:41:17.446Z,11.23
2022-10-14T03:43:44.091Z,9.90
2022-10-14T03:46:10.731Z,10.00
2022-10-14T03:48:37.511Z,10.85
2022-10-14T03:51:04.309Z,12.73
2022-10-14T03:53:31.011Z,9.68
2022-10-14T03:55:57.684Z,9.75
2022-10-14T03:58:24.372Z,10.73
2022-10-14T04:00:51.054Z,10.95
2022-10-14T04:03:17.810Z,10.55
2022-10-14T04:05:44.517Z,8.95
2022-10-14T04:08:11.199Z,8.45
2022-10-14T04:10:37.868Z,10.52
2022-10-14T04:13:04.643Z,7.90
2022-10-14T04:15:31.275Z,8.05
2022-10-14T04:17:57.948Z,7.85
2022-10-14T04:20:24.702Z,9.10
2022-10-14T04:22:51.340Z,9.80
2022-10-14T04:25:18.061Z,8.57
2022-10-14T04:27:44.871Z,9.50
2022-10-14T04:30:12.248Z,8.98
2022-10-14T04:32:38.931Z,10.20
2022-10-14T04:35:06.313Z,10.88
2022-10-14T04:37:32.944Z,10.93
2022-10-14T04:39:59.744Z,10.73
2022-10-14T04:42:26.622Z,10.35
2022-10-14T04:44:53.269Z,11.43
2022-10-14T04:47:20.111Z,8.15
2022-10-14T04:49:46.771Z,9.25
2022-10-14T04:52:13.549Z,7.65
2022-10-14T04:54:40.290Z,8.50
2022-10-14T04:57:07.455Z,7.88
2022-10-14T04:59:34.261Z,9.77
2022-10-14T05:02:01.127Z,8.57
2022-10-14T05:04:27.988Z,7.72
2022-10-14T05:06:54.655Z,7.68
2022-10-14T05:09:21.288Z,6.93
2022-10-14T05:11:48.009Z,9.27
2022-10-14T05:14:14.761Z,8.30
2022-10-14T05:16:41.458Z,8.55
2022-10-14T05:19:08.099Z,7.32
2022-10-14T05:21:34.800Z,7.40
2022-10-14T05:24:01.661Z,8.75
2022-10-14T05:26:28.337Z,7.15
2022-10-14T05:28:55.085Z,7.18
2022-10-14T05:31:21.853Z,6.85
2022-10-14T05:33:48.503Z,9.95
2022-10-14T05:36:15.191Z,7.28
2022-10-14T05:38:41.968Z,7.28
2022-10-14T05:41:09.771Z,8.30
2022-10-14T05:43:36.413Z,9.43
2022-10-14T05:46:03.429Z,7.50
2022-10-14T05:48:30.732Z,8.27
2022-10-14T05:51:01.497Z,6.93
2022-10-14T05:53:28.663Z,7.50
2022-10-14T05:56:02.587Z,8.48
2022-10-14T05:58:29.370Z,8.55
2022-10-14T06:01:00.448Z,8.60
2022-10-14T06:03:27.475Z,8.10
2022-10-14T06:05:54.314Z,8.00
2022-10-14T06:08:21.300Z,9.75
2022-10-14T06:10:47.987Z,9.05
2022-10-14T06:13:14.730Z,9.90
2022-10-14T06:15:41.476Z,10.18
2022-10-14T06:18:08.349Z,8.75
2022-10-14T06:20:35.149Z,9.57
2022-10-14T06:23:02.480Z,10.60
2022-10-14T06:25:30.678Z,9.80
2022-10-14T06:28:06.221Z,10.85
2022-10-14T06:30:33.496Z,11.65
2022-10-14T06:33:00.174Z,9.52
2022-10-14T06:35:26.870Z,8.15
2022-10-14T06:37:53.560Z,8.68
2022-10-14T06:40:20.909Z,10.30
2022-10-14T06:42:47.599Z,10.18
2022-10-14T06:45:14.775Z,11.40
2022-10-14T06:47:41.583Z,12.73
2022-10-14T06:50:08.434Z,11.98
2022-10-14T06:52:35.369Z,12.23
2022-10-14T06:55:02.063Z,12.23
2022-10-14T06:57:28.796Z,14.48
2022-10-14T06:59:56.087Z,13.73
2022-10-14T07:02:23.029Z,16.20
2022-10-14T07:04:50.158Z,16.95
2022-10-14T07:07:16.900Z,16.90
2022-10-14T07:09:43.758Z,16.00
2022-10-14T07:12:10.466Z,13.68
2022-10-14T07:14:37.124Z,15.32
2022-10-14T07:17:04.056Z,19.05
2022-10-14T07:19:30.730Z,20.58
2022-10-14T07:21:57.367Z,17.15
2022-10-14T07:24:23.995Z,19.70
2022-10-14T07:26:50.766Z,16.20
2022-10-14T07:29:17.623Z,14.77
2022-10-14T07:31:44.299Z,18.50
2022-10-14T07:34:11.214Z,14.38
2022-10-14T07:36:37.829Z,14.15
2022-10-14T07:39:05.827Z,14.52
2022-10-14T07:41:33.591Z,16.67
2022-10-14T07:44:03.261Z,14.68
2022-10-14T07:46:32.287Z,16.25
2022-10-14T07:49:08.381Z,16.55
2022-10-14T07:51:35.669Z,16.70
2022-10-14T07:54:04.797Z,13.20
2022-10-14T07:56:31.448Z,14.07
2022-10-14T07:58:58.797Z,13.93
2022-10-14T08:01:25.563Z,13.25
2022-10-14T08:03:52.322Z,14.65
2022-10-14T08:06:19.552Z,17.27
2022-10-14T08:08:46.300Z,14.05
2022-10-14T08:11:20.522Z,15.15
2022-10-14T08:13:47.596Z,13.63
2022-10-14T08:16:21.767Z,15.93
2022-10-14T08:18:49.694Z,12.90
2022-10-14T08:21:17.823Z,12.27
2022-10-14T08:23:44.594Z,12.32
2022-10-14T08:26:25.125Z,14.93
2022-10-14T08:28:51.989Z,15.07
2022-10-14T08:31:19.665Z,11.98
2022-10-14T08:33:46.487Z,13.00
2022-10-14T08:36:13.903Z,12.93
2022-10-14T08:38:41.071Z,14.93
2022-10-14T08:41:37.300Z,14.35
2022-10-14T08:44:15.892Z,11.77
2022-10-14T08:46:56.560Z,12.95
2022-10-14T08:49:44.902Z,12.15
2022-10-14T08:52:17.270Z,11.75
2022-10-14T08:54:47.400Z,10.75
2022-10-14T08:57:20.420Z,10.85
2022-10-14T08:59:47.510Z,11.13
2022-10-14T09:02:24.774Z,11.52
2022-10-14T09:04:51.577Z,9.77
2022-10-14T09:07:19.989Z,12.13
2022-10-14T09:10:02.302Z,10.02
2022-10-14T09:12:32.976Z,12.77
2022-10-14T09:15:16.800Z,11.02
2022-10-14T09:17:52.436Z,10.07
2022-10-14T09:20:22.592Z,10.20
2022-10-14T09:23:04.134Z,9.32
2022-10-14T09:25:34.421Z,12.40
2022-10-14T09:28:01.336Z,7.85
2022-10-14T09:30:34.447Z,9.13
2022-10-14T09:33:01.202Z,10.07
2022-10-14T09:35:41.707Z,7.68
2022-10-14T09:38:08.355Z,9.57
2022-10-14T09:40:37.344Z,10.88
2022-10-14T09:43:10.110Z,8.25
2022-10-14T09:45:57.759Z,6.78
2022-10-14T09:48:32.768Z,7.10
2022-10-14T09:51:03.077Z,7.50
2022-10-14T09:53:37.310Z,6.82
2022-10-14T09:56:06.540Z,7.72
2022-10-14T09:58:42.028Z,8.38
2022-10-14T10:01:19.454Z,7.22
2022-10-14T10:03:47.992Z,5.55
2022-10-14T10:06:22.621Z,7.72
2022-10-14T10:08:55.495Z,5.93
2022-10-14T10:11:31.261Z,6.13
2022-10-14T10:13:58.047Z,8.45
2022-10-14T10:16:34.824Z,6.47
2022-10-14T10:19:27.545Z,5.47
2022-10-14T10:21:54.932Z,6.80
2022-10-14T10:24:26.144Z,7.40
2022-10-14T10:26:55.436Z,5.40
2022-10-14T10:29:31.782Z,5.53
2022-10-14T10:32:09.057Z,4.30
2022-10-14T10:34:44.610Z,4.43
2022-10-14T10:37:35.480Z,5.22
2022-10-14T10:40:21.541Z,3.70
2022-10-14T10:43:18.641Z,4.75
2022-10-14T10:46:15.174Z,3.78
2022-10-14T10:48:45.199Z,4.55
2022-10-14T10:51:43.900Z,5.75
2022-10-14T10:54:44.184Z,4.57
2022-10-14T10:57:39.204Z,3.90
2022-10-14T11:00:13.469Z,3.97
2022-10-14T11:02:45.927Z,4.50
2022-10-14T11:05:15.604Z,5.25
2022-10-14T11:08:21.965Z,6.40
2022-10-14T11:11:24.530Z,4.95
2022-10-14T11:13:57.432Z,5.90
2022-10-14T11:16:45.882Z,3.38
2022-10-14T11:19:24.235Z,3.65
2022-10-14T11:22:16.873Z,3.55
2022-10-14T11:24:46.553Z,3.92
2022-10-14T11:27:26.795Z,4.55
2022-10-14T11:30:22.364Z,3.40
2022-10-14T11:33:13.734Z,2.67
2022-10-14T11:35:51.314Z,2.30
2022-10-14T11:38:23.526Z,2.35
2022-10-14T11:41:08.483Z,2.20
2022-10-14T11:43:53.024Z,2.17
2022-10-14T11:46:29.089Z,2.35
2022-10-14T11:49:00.108Z,2.85
2022-10-14T11:51:53.200Z,2.63
2022-10-14T11:54:35.394Z,2.25
2022-10-14T11:57:10.908Z,2.70
2022-10-14T11:59:55.836Z,3.80
2022-10-14T12:02:51.779Z,2.20
2022-10-14T12:05:24.557Z,2.42
2022-10-14T12:08:00.453Z,2.63
2022-10-14T12:10:33.033Z,2.92
2022-10-14T12:13:01.147Z,2.75
2022-10-14T12:15:32.120Z,4.07
2022-10-14T12:18:05.805Z,2.80
2022-10-14T12:20:44.903Z,3.67
2022-10-14T12:23:22.688Z,3.55
2022-10-14T12:25:57.338Z,2.88
2022-10-14T12:28:24.410Z,2.80
2022-10-14T12:30:51.694Z,3.67
2022-10-14T12:33:22.552Z,3.45
2022-10-14T12:35:52.517Z,5.22
2022-10-14T12:38:21.178Z,3.30
2022-10-14T12:40:49.289Z,3.17
2022-10-14T12:43:18.060Z,3.20
2022-10-14T12:46:13.443Z,2.70
2022-10-14T12:48:50.640Z,2.83
2022-10-14T12:51:24.632Z,3.95
2022-10-14T12:54:06.972Z,2.53
2022-10-14T12:56:42.196Z,2.85
2022-10-14T12:59:20.916Z,2.55
2022-10-14T13:01:55.725Z,3.05
2022-10-14T13:04:22.863Z,2.85
2022-10-14T13:07:43.414Z,2.78
2022-10-14T13:10:35.797Z,2.97
2022-10-14T13:13:58.998Z,3.35
2022-10-14T13:16:25.734Z,2.67
2022-10-14T13:18:57.862Z,3.40
2022-10-14T13:21:36.496Z,2.58
2022-10-14T13:24:17.679Z,5.18
2022-10-14T13:26:51.365Z,3.00
2022-10-14T13:29:26.337Z,4.68
2022-10-14T13:32:35.015Z,2.13
2022-10-14T13:35:21.892Z,3.72
2022-10-14T13:38:12.932Z,3.05
2022-10-14T13:40:52.056Z,2.25
2022-10-14T13:43:21.750Z,2.67
2022-10-14T13:46:03.413Z,3.03
2022-10-14T13:48:33.430Z,2.38
2022-10-14T13:51:35.088Z,2.03
2022-10-14T13:54:23.390Z,2.78
2022-10-14T14:02:48.996Z,2.67
2022-10-14T14:05:19.843Z,3.75
2022-10-14T14:10:39.174Z,2.58
2022-10-14T14:13:14.005Z,3.33
2022-10-14T14:15:40.906Z,2.30
2022-10-14T14:18:38.049Z,2.50
2022-10-14T14:21:28.826Z,3.67
2022-10-14T14:23:57.300Z,3.72
2022-10-14T14:26:33.314Z,2.60
2022-10-14T14:29:03.492Z,1.85
2022-10-14T14:31:47.901Z,2.53
2022-10-14T14:34:22.049Z,2.20
2022-10-14T14:36:53.351Z,3.53
2022-10-14T14:39:29.718Z,4.88
2022-10-14T14:42:00.708Z,5.05
2022-10-14T14:44:31.206Z,2.30
2022-10-14T14:47:01.640Z,11.07
2022-10-14T14:49:39.193Z,4.38
2022-10-14T14:52:07.027Z,4.10
2022-10-14T14:54:33.667Z,2.85
2022-10-14T14:57:00.268Z,3.08
2022-10-14T14:59:40.539Z,3.47
2022-10-14T15:02:19.814Z,2.05
2022-10-14T15:04:48.160Z,1.80
2022-10-14T15:07:21.942Z,1.73
2022-10-14T15:09:55.259Z,1.92
2022-10-14T15:12:28.148Z,1.98
2022-10-14T15:15:00.415Z,1.60
2022-10-14T15:17:34.555Z,2.22
2022-10-14T15:20:28.683Z,1.75
2022-10-14T15:22:55.378Z,1.17
2022-10-14T15:25:23.369Z,2.13
2022-10-14T15:27:54.756Z,1.20
2022-10-14T15:30:38.330Z,1.27
2022-10-14T15:33:17.830Z,0.90
2022-10-14T15:35:46.288Z,2.08
2022-10-14T15:38:18.289Z,2.28
2022-10-14T15:40:47.019Z,1.10
2022-10-14T15:43:17.656Z,3.22
2022-10-14T15:45:47.215Z,1.50
2022-10-14T15:48:19.901Z,2.78
2022-10-14T15:50:48.078Z,1.55
2022-10-14T15:53:17.004Z,1.50
2022-10-14T15:55:44.174Z,1.77
2022-10-14T15:58:10.789Z,1.77
2022-10-14T16:00:37.441Z,4.13
2022-10-14T16:03:04.147Z,2.05
2022-10-14T16:05:30.955Z,2.50
2022-10-14T16:07:57.703Z,2.53
2022-10-14T16:10:28.127Z,2.15
2022-10-14T16:12:57.237Z,2.42
2022-10-14T16:15:38.732Z,1.98
2022-10-14T16:18:05.620Z,2.00
2022-10-14T16:20:32.958Z,1.95
2022-10-14T16:23:01.234Z,1.58
2022-10-14T16:25:43.565Z,1.58
2022-10-14T16:28:11.679Z,1.73
2022-10-14T16:30:40.642Z,1.60
2022-10-14T16:33:07.722Z,2.50
2022-10-14T16:35:34.578Z,1.63
2022-10-14T16:38:01.166Z,1.40
2022-10-14T16:40:27.887Z,2.00
2022-10-14T16:42:54.630Z,2.80
2022-10-14T16:45:21.266Z,2.60
2022-10-14T16:47:47.906Z,2.85
2022-10-14T16:50:14.591Z,3.28
2022-10-14T16:53:02.241Z,2.28
2022-10-14T16:55:31.864Z,3.03
2022-10-14T16:57:58.615Z,3.40
2022-10-14T17:00:25.393Z,3.33
2022-10-14T17:02:52.083Z,2.45
2022-10-14T17:05:18.707Z,2.25
2022-10-14T17:07:45.341Z,2.85
2022-10-14T17:10:12.669Z,2.17
2022-10-14T17:12:39.594Z,2.20
2022-10-14T17:15:06.861Z,2.67
2022-10-14T17:17:33.520Z,5.57
2022-10-14T17:20:03.085Z,2.00
2022-10-14T17:22:29.818Z,2.00
2022-10-14T17:24:56.566Z,1.70
2022-10-14T17:27:24.595Z,1.90
2022-10-14T17:29:51.382Z,1.50
2022-10-14T17:32:18.845Z,1.70
2022-10-14T17:34:45.882Z,1.13
2022-10-14T17:37:12.602Z,1.20
2022-10-14T17:39:40.059Z,2.45
2022-10-14T17:42:06.703Z,1.27
2022-10-14T17:44:33.386Z,1.75
2022-10-14T17:47:01.245Z,2.28
2022-10-14T17:49:29.386Z,1.35
2022-10-14T17:51:56.117Z,1.95
2022-10-14T17:54:22.761Z,1.77
2022-10-14T17:56:49.406Z,1.85
2022-10-14T17:59:16.078Z,2.50
2022-10-14T18:02:01.512Z,1.60
2022-10-14T18:04:29.449Z,0.88
2022-10-14T18:06:56.250Z,0.90
2022-10-14T18:09:22.941Z,2.88
2022-10-14T18:14:40.599Z,1.20
2022-10-14T18:17:07.975Z,1.08
2022-10-14T18:19:35.055Z,0.73
2022-10-14T18:22:02.645Z,4.68
2022-10-14T18:24:29.487Z,4.18
2022-10-14T18:26:56.185Z,2.80
2022-10-14T18:29:23.896Z,2.33
2022-10-14T18:34:17.961Z,1.70
2022-10-14T18:36:44.951Z,1.58
2022-10-14T18:39:12.241Z,3.20
2022-10-14T18:41:39.495Z,1.05
2022-10-14T18:44:06.773Z,0.90
2022-10-14T18:46:35.960Z,0.90
2022-10-14T18:49:04.782Z,1.10
2022-10-14T18:51:34.881Z,1.15
2022-10-14T18:54:10.042Z,1.35
2022-10-14T18:56:40.992Z,0.82
2022-10-14T18:59:10.722Z,0.80
2022-10-14T19:01:39.392Z,0.73
2022-10-14T19:04:07.679Z,1.85
2022-10-14T19:06:34.886Z,1.65
2022-10-14T19:09:01.820Z,0.95
2022-10-14T19:11:29.604Z,1.10
2022-10-14T19:13:58.569Z,2.83
2022-10-14T19:16:27.432Z,0.98
2022-10-14T19:18:59.276Z,1.65
2022-10-14T19:21:29.812Z,1.13
2022-10-14T19:24:01.694Z,1.13
2022-10-14T19:26:33.694Z,3.30
2022-10-14T19:29:04.270Z,0.90
2022-10-14T19:31:35.403Z,0.95
2022-10-14T19:34:07.441Z,2.03
2022-10-14T19:36:37.436Z,1.42
2022-10-14T19:39:06.584Z,1.13
2022-10-14T19:41:35.012Z,1.40
2022-10-14T19:44:01.966Z,0.77
2022-10-14T19:46:29.706Z,1.13
2022-10-14T19:49:07.277Z,2.17
2022-10-14T19:51:35.620Z,1.05
2022-10-14T19:54:02.642Z,1.48
2022-10-14T19:56:30.377Z,1.20
2022-10-14T19:58:58.582Z,2.35
2022-10-14T20:01:28.030Z,1.33
2022-10-14T20:03:55.456Z,1.52
2022-10-14T20:06:23.332Z,2.03
2022-10-14T20:08:51.171Z,1.92
2022-10-14T20:11:21.140Z,1.30
2022-10-14T20:13:47.788Z,1.75
2022-10-14T20:16:14.974Z,0.80
2022-10-14T20:18:42.071Z,1.10
2022-10-14T20:21:12.438Z,0.80
2022-10-14T20:23:39.692Z,0.80
2022-10-14T20:26:10.947Z,1.65
2022-10-14T20:28:38.982Z,1.95
2022-10-14T20:31:07.262Z,0.85
2022-10-14T20:33:34.000Z,3.45
2022-10-14T20:36:06.615Z,2.85
2022-10-14T20:38:33.772Z,1.50
2022-10-14T20:41:08.207Z,1.23
2022-10-14T20:43:34.894Z,4.53
2022-10-14T20:46:01.605Z,2.08
2022-10-14T20:48:28.266Z,1.02
2022-10-14T20:50:55.056Z,1.83
2022-10-14T20:53:22.145Z,2.40
2022-10-14T21:00:08.060Z,2.40
2022-10-14T21:03:30.965Z,1.27
2022-10-14T21:06:36.044Z,1.88
2022-10-14T21:09:49.593Z,1.10
2022-10-14T21:13:06.058Z,1.02
2022-10-14T21:16:13.510Z,0.82
2022-10-14T21:19:27.016Z,1.95
2022-10-14T21:22:46.856Z,1.00
2022-10-14T21:25:51.571Z,1.13
2022-10-14T21:29:05.161Z,0.95
2022-10-14T21:32:12.571Z,0.95
2022-10-14T21:35:36.838Z,5.07
2022-10-14T21:41:53.464Z,0.80
2022-10-14T21:45:10.482Z,0.70
2022-10-14T21:48:25.217Z,1.42
2022-10-14T21:51:39.472Z,1.75
2022-10-14T21:54:50.104Z,1.10
2022-10-14T21:58:10.658Z,3.05
2022-10-14T22:01:21.880Z,2.30
2022-10-14T22:04:34.613Z,1.20
2022-10-14T22:07:41.899Z,1.00
2022-10-14T22:22:27.917Z,0.77
2022-10-14T22:25:38.104Z,1.13
2022-10-14T22:28:51.734Z,0.60
2022-10-14T22:32:11.806Z,1.23
2022-10-14T22:35:25.542Z,0.70
2022-10-14T22:38:29.642Z,2.47
2022-10-14T22:41:46.390Z,1.08
2022-10-14T22:44:50.249Z,0.80
2022-10-14T22:48:03.905Z,0.82
2022-10-14T22:51:17.582Z,0.80
2022-10-14T22:54:33.966Z,1.10
2022-10-14T22:57:53.672Z,0.65
2022-10-14T23:01:13.936Z,2.08
2022-10-14T23:04:27.471Z,0.98
2022-10-14T23:07:34.945Z,0.45
2022-10-14T23:10:45.475Z,0.73
2022-10-14T23:14:01.484Z,0.80
2022-10-14T23:17:05.588Z,2.08
2022-10-14T23:20:22.075Z,1.55
2022-10-14T23:23:32.554Z,0.50
2022-10-14T23:26:37.229Z,1.10
2022-10-14T23:29:47.838Z,0.90
2022-10-14T23:33:06.015Z,0.80
2022-10-14T23:39:33.581Z,1.05
2022-10-14T23:42:37.587Z,1.27
2022-10-14T23:45:48.212Z,4.35
2022-10-14T23:49:07.321Z,0.43
2022-10-14T23:52:15.760Z,0.70
2022-10-14T23:55:37.333Z,2.80
2022-10-14T23:58:45.911Z,1.00
